createdAt,value
2018-04-29T00:00:46.577Z,87.70
2018-04-29T00:01:46.760Z,87.41
2018-04-29T00:02:46.998Z,87.41
2018-04-29T00:03:47.241Z,87.32
2018-04-29T00:04:47.484Z,87.51
2018-04-29T00:05:47.715Z,87.51
2018-04-29T00:06:47.953Z,88.18
2018-04-29T00:07:48.189Z,87.51
2018-04-29T00:08:48.434Z,87.41
2018-04-29T00:09:48.683Z,87.98
2018-04-29T00:10:48.919Z,87.60
2018-04-29T00:11:49.161Z,87.51
2018-04-29T00:12:49.404Z,87.70
2018-04-29T00:13:49.641Z,88.08
2018-04-29T00:14:49.881Z,88.27
2018-04-29T00:15:50.138Z,88.84
2018-04-29T00:16:50.364Z,88.75
2018-04-29T00:17:50.605Z,87.89
2018-04-29T00:18:50.845Z,88.18
2018-04-29T00:19:51.091Z,88.08
2018-04-29T00:20:51.333Z,87.13
2018-04-29T00:21:51.574Z,87.23
2018-04-29T00:22:51.812Z,87.32
2018-04-29T00:23:52.067Z,87.89
2018-04-29T00:24:52.291Z,87.51
2018-04-29T00:25:52.528Z,87.98
2018-04-29T00:26:52.763Z,87.79
2018-04-29T00:27:52.995Z,87.79
2018-04-29T00:28:53.248Z,88.37
2018-04-29T00:29:53.488Z,87.79
2018-04-29T00:30:53.734Z,88.84
2018-04-29T00:31:53.970Z,88.75
2018-04-29T00:32:54.316Z,88.18
2018-04-29T00:33:54.459Z,87.23
2018-04-29T00:34:54.701Z,85.51
2018-04-29T00:35:54.938Z,84.46
2018-04-29T00:36:55.180Z,84.69
2018-04-29T00:37:55.422Z,84.88
2018-04-29T00:38:55.665Z,85.64
2018-04-29T00:39:55.901Z,87.13
2018-04-29T00:40:56.145Z,88.08
2018-04-29T00:41:56.400Z,89.03
2018-04-29T00:42:56.624Z,90.46
2018-04-29T00:43:56.865Z,91.84
2018-04-29T00:44:57.107Z,92.22
2018-04-29T00:45:57.349Z,92.32
2018-04-29T00:46:57.593Z,92.79
2018-04-29T00:47:57.832Z,93.27
2018-04-29T00:48:58.079Z,93.27
2018-04-29T00:49:58.314Z,93.18
2018-04-29T00:50:58.554Z,93.37
2018-04-29T00:51:58.813Z,93.65
2018-04-29T00:52:59.030Z,93.37
2018-04-29T00:53:59.270Z,93.37
2018-04-29T00:54:59.509Z,93.46
2018-04-29T00:55:59.757Z,93.65
2018-04-29T00:56:59.988Z,93.55
2018-04-29T00:58:00.229Z,93.55
2018-04-29T00:59:00.503Z,93.08
2018-04-29T01:00:00.711Z,93.46
2018-04-29T01:01:00.954Z,93.27
2018-04-29T01:02:01.192Z,93.18
2018-04-29T01:03:01.438Z,92.79
2018-04-29T01:04:01.677Z,92.70
2018-04-29T01:05:01.909Z,92.51
2018-04-29T01:06:02.234Z,92.99
2018-04-29T01:07:02.391Z,91.46
2018-04-29T01:08:02.626Z,90.51
2018-04-29T01:09:02.868Z,89.18
2018-04-29T01:10:03.104Z,88.89
2018-04-29T01:11:03.348Z,89.27
2018-04-29T01:12:03.574Z,89.65
2018-04-29T01:13:03.814Z,90.27
2018-04-29T01:14:04.055Z,91.08
2018-04-29T01:15:04.292Z,90.89
2018-04-29T01:16:04.534Z,90.99
2018-04-29T01:17:04.775Z,91.27
2018-04-29T01:18:05.015Z,90.70
2018-04-29T01:19:05.253Z,89.47
2018-04-29T01:20:05.494Z,89.08
2018-04-29T01:21:05.734Z,89.08
2018-04-29T01:22:05.979Z,89.47
2018-04-29T01:23:06.220Z,89.08
2018-04-29T01:24:06.450Z,90.22
2018-04-29T01:25:06.688Z,90.22
2018-04-29T01:26:06.933Z,89.56
2018-04-29T01:27:07.187Z,89.65
2018-04-29T01:28:07.410Z,89.47
2018-04-29T01:29:07.652Z,89.84
2018-04-29T01:30:07.897Z,89.47
2018-04-29T01:31:08.145Z,89.47
2018-04-29T01:32:08.382Z,89.75
2018-04-29T01:33:08.618Z,90.32
2018-04-29T01:34:08.850Z,89.47
2018-04-29T01:35:09.096Z,90.22
2018-04-29T01:36:09.346Z,89.94
2018-04-29T01:37:09.578Z,90.13
2018-04-29T01:38:09.816Z,89.65
2018-04-29T01:39:10.061Z,90.22
2018-04-29T01:40:10.298Z,89.84
2018-04-29T01:41:10.533Z,90.13
2018-04-29T01:42:10.771Z,90.22
2018-04-29T01:43:11.012Z,90.03
2018-04-29T01:44:11.252Z,90.28
2018-04-29T01:45:11.500Z,90.47
2018-04-29T01:46:11.734Z,91.03
2018-04-29T01:47:11.976Z,90.75
2018-04-29T01:48:12.217Z,90.56
2018-04-29T01:49:12.474Z,90.56
2018-04-29T01:50:12.694Z,90.37
2018-04-29T01:51:12.935Z,90.75
2018-04-29T01:52:13.176Z,91.61
2018-04-29T01:53:13.437Z,91.61
2018-04-29T01:54:13.654Z,92.08
2018-04-29T01:55:13.907Z,92.56
2018-04-29T01:56:14.151Z,92.65
2018-04-29T01:57:14.398Z,92.84
2018-04-29T01:58:14.623Z,93.41
2018-04-29T01:59:14.867Z,93.32
2018-04-29T02:00:15.090Z,93.23
2018-04-29T02:01:15.334Z,92.94
2018-04-29T02:02:15.573Z,93.70
2018-04-29T02:03:15.813Z,93.04
2018-04-29T02:04:16.052Z,93.60
2018-04-29T02:05:16.296Z,93.13
2018-04-29T02:06:16.533Z,93.41
2018-04-29T02:07:16.779Z,93.70
2018-04-29T02:08:17.023Z,93.89
2018-04-29T02:09:17.257Z,93.70
2018-04-29T02:10:17.501Z,93.60
2018-04-29T02:11:17.732Z,93.98
2018-04-29T02:12:17.969Z,94.27
2018-04-29T02:13:18.209Z,94.56
2018-04-29T02:14:18.448Z,95.89
2018-04-29T02:15:18.689Z,95.65
2018-04-29T02:16:18.931Z,96.03
2018-04-29T02:17:19.159Z,97.27
2018-04-29T02:18:19.404Z,97.36
2018-04-29T02:19:19.645Z,97.93
2018-04-29T02:20:19.889Z,97.93
2018-04-29T02:21:20.131Z,98.88
2018-04-29T02:22:20.365Z,97.93
2018-04-29T02:23:20.600Z,97.93
2018-04-29T02:24:20.857Z,97.93
2018-04-29T02:25:21.081Z,97.55
2018-04-29T02:26:21.315Z,98.03
2018-04-29T02:27:21.554Z,97.64
2018-04-29T02:28:21.792Z,97.27
2018-04-29T02:29:22.033Z,97.55
2018-04-29T02:30:22.270Z,97.27
2018-04-29T02:31:22.594Z,97.45
2018-04-29T02:32:22.751Z,96.98
2018-04-29T02:33:23.005Z,96.60
2018-04-29T02:34:23.222Z,96.69
2018-04-29T02:35:23.463Z,96.50
2018-04-29T02:36:23.701Z,96.50
2018-04-29T02:37:23.940Z,96.03
2018-04-29T02:38:24.181Z,96.41
2018-04-29T02:39:24.423Z,96.12
2018-04-29T02:40:24.656Z,95.60
2018-04-29T02:41:24.893Z,95.36
2018-04-29T02:42:25.131Z,95.46
2018-04-29T02:43:25.370Z,95.41
2018-04-29T02:44:25.657Z,95.60
2018-04-29T02:45:25.855Z,94.89
2018-04-29T02:46:26.081Z,96.03
2018-04-29T02:47:26.324Z,95.84
2018-04-29T02:48:26.569Z,95.60
2018-04-29T02:49:26.810Z,95.70
2018-04-29T02:50:27.062Z,95.65
2018-04-29T02:51:27.307Z,95.70
2018-04-29T02:52:27.543Z,94.98
2018-04-29T02:53:27.779Z,95.27
2018-04-29T02:54:28.015Z,94.60
2018-04-29T02:55:28.266Z,94.70
2018-04-29T02:56:28.494Z,95.56
2018-04-29T02:57:28.734Z,95.36
2018-04-29T02:58:28.975Z,95.79
2018-04-29T02:59:29.191Z,95.89
2018-04-29T03:00:29.446Z,95.60
2018-04-29T03:01:29.708Z,95.51
2018-04-29T03:02:29.928Z,95.12
2018-04-29T03:03:30.166Z,95.22
2018-04-29T03:04:30.410Z,94.65
2018-04-29T03:05:30.646Z,94.56
2018-04-29T03:06:30.890Z,94.65
2018-04-29T03:07:31.129Z,94.93
2018-04-29T03:08:31.371Z,95.03
2018-04-29T03:09:31.604Z,95.98
2018-04-29T03:10:31.851Z,95.60
2018-04-29T03:11:32.088Z,95.51
2018-04-29T03:12:32.327Z,95.36
2018-04-29T03:13:32.569Z,95.89
2018-04-29T03:14:32.810Z,96.12
2018-04-29T03:15:33.061Z,95.75
2018-04-29T03:16:33.292Z,95.56
2018-04-29T03:17:33.534Z,95.56
2018-04-29T03:18:33.766Z,95.65
2018-04-29T03:19:34.014Z,96.79
2018-04-29T03:20:34.249Z,97.17
2018-04-29T03:21:34.501Z,97.83
2018-04-29T03:22:34.726Z,97.83
2018-04-29T03:23:34.966Z,98.41
2018-04-29T03:24:35.203Z,98.31
2018-04-29T03:25:35.433Z,98.69
2018-04-29T03:26:35.667Z,98.69
2018-04-29T03:27:35.906Z,98.12
2018-04-29T03:28:36.171Z,98.41
2018-04-29T03:29:36.385Z,98.60
2018-04-29T03:30:36.623Z,98.31
2018-04-29T03:31:36.866Z,98.50
2018-04-29T03:32:37.107Z,98.79
2018-04-29T03:33:37.348Z,98.41
2018-04-29T03:34:37.581Z,98.31
2018-04-29T03:35:37.811Z,98.60
2018-04-29T03:36:38.050Z,98.50
2018-04-29T03:37:38.290Z,98.79
2018-04-29T03:38:38.530Z,98.60
2018-04-29T03:39:38.764Z,99.26
2018-04-29T03:40:38.999Z,98.69
2018-04-29T03:41:39.242Z,98.83
2018-04-29T03:42:39.477Z,98.36
2018-04-29T03:43:39.723Z,98.83
2018-04-29T03:44:39.962Z,98.55
2018-04-29T03:45:40.202Z,98.64
2018-04-29T03:46:40.432Z,98.74
2018-04-29T03:47:40.668Z,98.74
2018-04-29T03:48:40.910Z,98.36
2018-04-29T03:49:41.149Z,99.02
2018-04-29T03:50:41.387Z,99.40
2018-04-29T03:51:41.626Z,99.40
2018-04-29T03:52:41.868Z,99.40
2018-04-29T03:53:42.109Z,99.88
2018-04-29T03:54:42.353Z,99.88
2018-04-29T03:55:42.576Z,99.21
2018-04-29T03:56:42.817Z,99.69
2018-04-29T03:57:43.066Z,99.59
2018-04-29T03:58:43.285Z,99.88
2018-04-29T03:59:43.523Z,99.69
2018-04-29T04:00:43.760Z,99.78
2018-04-29T04:01:51.285Z,99.99
2018-04-29T04:02:44.321Z,99.99
2018-04-29T04:03:44.480Z,99.99
2018-04-29T04:04:44.715Z,99.99
2018-04-29T04:05:44.956Z,99.99
2018-04-29T04:06:45.195Z,99.99
2018-04-29T04:07:45.432Z,99.99
2018-04-29T04:08:45.666Z,99.99
2018-04-29T04:09:45.944Z,99.99
2018-04-29T04:10:46.149Z,99.99
2018-04-29T04:11:46.389Z,99.99
2018-04-29T04:12:46.631Z,99.99
2018-04-29T04:13:46.869Z,99.99
2018-04-29T04:14:47.107Z,99.99
2018-04-29T04:15:47.346Z,99.99
2018-04-29T04:16:47.585Z,99.99
2018-04-29T04:17:47.831Z,99.99
2018-04-29T04:18:48.068Z,99.99
2018-04-29T04:19:48.303Z,99.99
2018-04-29T04:20:48.546Z,99.99
2018-04-29T04:21:48.783Z,99.99
2018-04-29T04:22:49.025Z,99.99
2018-04-29T04:23:49.319Z,99.99
2018-04-29T04:24:49.502Z,99.99
2018-04-29T04:25:49.743Z,99.99
2018-04-29T04:26:49.982Z,99.99
2018-04-29T04:27:50.222Z,99.97
2018-04-29T04:28:50.460Z,99.99
2018-04-29T04:29:50.699Z,99.99
2018-04-29T04:30:50.939Z,99.99
2018-04-29T04:31:51.181Z,99.99
2018-04-29T04:32:51.429Z,99.99
2018-04-29T04:33:51.654Z,99.99
2018-04-29T04:34:51.895Z,99.99
2018-04-29T04:35:52.135Z,99.99
2018-04-29T04:36:52.372Z,99.99
2018-04-29T04:37:52.613Z,99.99
2018-04-29T04:38:52.852Z,99.99
2018-04-29T04:39:53.092Z,99.99
2018-04-29T04:40:53.333Z,99.99
2018-04-29T04:41:53.562Z,99.99
2018-04-29T04:42:53.805Z,99.99
2018-04-29T04:43:54.043Z,99.99
2018-04-29T04:44:54.280Z,99.99
2018-04-29T04:45:54.518Z,99.99
2018-04-29T04:46:54.758Z,99.99
2018-04-29T04:47:54.992Z,99.99
2018-04-29T04:48:55.229Z,99.99
2018-04-29T04:49:55.477Z,99.99
2018-04-29T04:50:55.715Z,99.99
2018-04-29T04:51:55.951Z,99.99
2018-04-29T04:52:56.192Z,99.99
2018-04-29T04:53:56.429Z,99.99
2018-04-29T04:54:56.746Z,99.99
2018-04-29T04:55:56.903Z,99.99
2018-04-29T04:56:57.144Z,99.99
2018-04-29T04:57:57.383Z,99.99
2018-04-29T04:58:57.619Z,99.99
2018-04-29T04:59:57.857Z,99.69
2018-04-29T05:00:58.094Z,99.64
2018-04-29T05:01:58.334Z,99.64
2018-04-29T05:02:58.576Z,99.74
2018-04-29T05:03:58.810Z,99.74
2018-04-29T05:04:59.057Z,99.99
2018-04-29T05:05:59.296Z,99.45
2018-04-29T05:06:59.540Z,99.36
2018-04-29T05:07:59.776Z,98.97
2018-04-29T05:09:00.016Z,98.88
2018-04-29T05:10:00.259Z,98.50
2018-04-29T05:11:00.496Z,98.50
2018-04-29T05:12:00.735Z,98.22
2018-04-29T05:13:00.973Z,98.60
2018-04-29T05:14:01.212Z,98.46
2018-04-29T05:15:01.450Z,98.36
2018-04-29T05:16:01.689Z,98.36
2018-04-29T05:17:01.928Z,97.79
2018-04-29T05:18:02.169Z,97.88
2018-04-29T05:19:02.405Z,97.88
2018-04-29T05:20:02.643Z,98.08
2018-04-29T05:21:02.881Z,97.31
2018-04-29T05:22:03.122Z,97.31
2018-04-29T05:23:03.356Z,97.60
2018-04-29T05:24:03.598Z,96.84
2018-04-29T05:25:03.837Z,97.13
2018-04-29T05:26:04.077Z,96.94
2018-04-29T05:27:04.310Z,96.94
2018-04-29T05:28:04.549Z,97.46
2018-04-29T05:29:04.786Z,97.17
2018-04-29T05:30:05.026Z,96.51
2018-04-29T05:31:05.265Z,96.70
2018-04-29T05:32:05.484Z,96.70
2018-04-29T05:33:05.730Z,96.31
2018-04-29T05:34:05.972Z,95.84
2018-04-29T05:35:06.215Z,94.79
2018-04-29T05:36:06.451Z,94.65
2018-04-29T05:37:06.689Z,94.37
2018-04-29T05:38:06.921Z,94.17
2018-04-29T05:39:07.162Z,94.37
2018-04-29T05:40:07.396Z,93.79
2018-04-29T05:41:07.672Z,93.70
2018-04-29T05:42:07.872Z,93.60
2018-04-29T05:43:08.119Z,93.74
2018-04-29T05:44:08.356Z,93.08
2018-04-29T05:45:08.594Z,93.37
2018-04-29T05:46:08.834Z,93.74
2018-04-29T05:47:09.074Z,93.93
2018-04-29T05:48:09.318Z,93.46
2018-04-29T05:49:09.555Z,92.89
2018-04-29T05:50:09.797Z,92.65
2018-04-29T05:51:10.039Z,91.98
2018-04-29T05:52:10.278Z,92.08
2018-04-29T05:53:10.522Z,91.22
2018-04-29T05:54:10.763Z,90.55
2018-04-29T05:55:11.007Z,89.98
2018-04-29T05:56:11.253Z,89.50
2018-04-29T05:57:11.479Z,89.40
2018-04-29T05:58:11.724Z,89.31
2018-04-29T05:59:11.964Z,89.17
2018-04-29T06:00:12.203Z,88.55
2018-04-29T06:01:12.448Z,88.21
2018-04-29T06:02:12.690Z,88.98
2018-04-29T06:03:12.917Z,89.83
2018-04-29T06:04:13.157Z,89.64
2018-04-29T06:05:13.396Z,89.45
2018-04-29T06:06:13.633Z,89.17
2018-04-29T06:07:13.881Z,88.50
2018-04-29T06:08:14.156Z,88.26
2018-04-29T06:09:14.363Z,87.97
2018-04-29T06:10:14.605Z,87.30
2018-04-29T06:11:14.850Z,86.82
2018-04-29T06:12:15.087Z,86.73
2018-04-29T06:13:15.337Z,86.30
2018-04-29T06:14:15.573Z,86.39
2018-04-29T06:15:15.818Z,86.20
2018-04-29T06:16:16.060Z,84.96
2018-04-29T06:17:16.302Z,84.48
2018-04-29T06:18:16.544Z,83.91
2018-04-29T06:19:16.786Z,84.10
2018-04-29T06:20:17.034Z,84.52
2018-04-29T06:21:17.258Z,83.67
2018-04-29T06:22:17.506Z,84.14
2018-04-29T06:23:17.748Z,83.57
2018-04-29T06:24:17.991Z,83.57
2018-04-29T06:25:18.233Z,82.81
2018-04-29T06:26:18.499Z,82.84
2018-04-29T06:27:18.719Z,82.65
2018-04-29T06:28:18.963Z,83.04
2018-04-29T06:29:19.204Z,83.51
2018-04-29T06:30:19.452Z,83.13
2018-04-29T06:31:19.689Z,82.18
2018-04-29T06:32:19.934Z,81.41
2018-04-29T06:33:20.194Z,81.03
2018-04-29T06:34:20.407Z,81.16
2018-04-29T06:35:20.647Z,81.26
2018-04-29T06:36:20.881Z,80.79
2018-04-29T06:37:21.125Z,81.16
2018-04-29T06:38:21.369Z,80.21
2018-04-29T06:39:21.613Z,80.25
2018-04-29T06:40:21.853Z,80.06
2018-04-29T06:41:22.099Z,81.21
2018-04-29T06:42:22.338Z,82.22
2018-04-29T06:43:22.583Z,83.37
2018-04-29T06:44:22.829Z,83.22
2018-04-29T06:45:23.064Z,81.34
2018-04-29T06:46:23.312Z,79.18
2018-04-29T06:47:23.556Z,75.14
2018-04-29T06:48:23.797Z,71.51
2018-04-29T06:49:24.043Z,67.00
2018-04-29T06:50:24.296Z,63.89
2018-04-29T06:51:24.531Z,60.23
2018-04-29T06:52:24.775Z,57.56
2018-04-29T06:53:25.053Z,55.08
2018-04-29T06:54:25.271Z,53.37
2018-04-29T06:55:25.518Z,53.20
2018-04-29T06:56:25.762Z,56.67
2018-04-29T06:57:26.030Z,63.32
2018-04-29T06:58:26.251Z,64.09
2018-04-29T06:59:26.492Z,64.22
2018-04-29T07:00:26.733Z,62.80
2018-04-29T07:01:26.977Z,59.33
2018-04-29T07:02:27.219Z,60.24
2018-04-29T07:03:27.451Z,65.49
2018-04-29T07:04:27.694Z,71.76
2018-04-29T07:05:27.936Z,72.47
2018-04-29T07:06:28.185Z,70.84
2018-04-29T07:07:28.450Z,72.39
2018-04-29T07:08:28.688Z,73.70
2018-04-29T07:09:28.930Z,76.52
2018-04-29T07:10:29.178Z,74.41
2018-04-29T07:11:29.415Z,74.22
2018-04-29T07:12:29.659Z,74.22
2018-04-29T07:13:29.921Z,74.44
2018-04-29T07:14:30.132Z,73.33
2018-04-29T07:15:30.389Z,70.93
2018-04-29T07:16:30.637Z,71.86
2018-04-29T07:17:30.877Z,70.14
2018-04-29T07:18:31.099Z,68.85
2018-04-29T07:19:31.363Z,69.46
2018-04-29T07:20:31.578Z,67.77
2018-04-29T07:21:31.824Z,66.42
2018-04-29T07:22:32.064Z,64.08
2018-04-29T07:23:32.305Z,61.13
2018-04-29T07:24:32.546Z,57.84
2018-04-29T07:25:32.787Z,54.13
2018-04-29T07:26:33.056Z,51.44
2018-04-29T07:27:33.324Z,50.12
2018-04-29T07:28:33.534Z,50.07
2018-04-29T07:29:33.770Z,51.97
2018-04-29T07:30:34.036Z,53.88
2018-04-29T07:31:34.263Z,53.59
2018-04-29T07:32:34.505Z,53.81
2018-04-29T07:33:34.748Z,52.31
2018-04-29T07:34:34.995Z,50.76
2018-04-29T07:35:35.227Z,50.67
2018-04-29T07:36:35.506Z,50.76
2018-04-29T07:37:35.729Z,49.19
2018-04-29T07:38:35.980Z,47.06
2018-04-29T07:39:36.214Z,47.55
2018-04-29T07:40:36.470Z,47.72
2018-04-29T07:41:36.716Z,48.88
2018-04-29T07:42:36.994Z,46.62
2018-04-29T07:43:37.234Z,45.75
2018-04-29T07:44:37.473Z,45.02
2018-04-29T07:45:37.720Z,43.51
2018-04-29T07:46:38.011Z,42.52
2018-04-29T07:47:38.226Z,43.51
2018-04-29T07:48:38.475Z,42.74
2018-04-29T07:49:38.726Z,42.25
2018-04-29T07:50:38.963Z,41.77
2018-04-29T07:53:12.305Z,40.64
2018-04-29T07:54:12.540Z,40.73
2018-04-29T07:55:12.783Z,40.99
2018-04-29T07:56:13.037Z,42.61
2018-04-29T07:57:13.289Z,42.89
2018-04-29T07:58:13.536Z,44.10
2018-04-29T07:59:13.786Z,44.81
2018-04-29T08:00:14.046Z,44.44
2018-04-29T08:01:14.294Z,45.68
2018-04-29T08:02:14.531Z,44.73
2018-04-29T08:03:14.782Z,45.15
2018-04-29T08:04:15.032Z,46.89
2018-04-29T08:05:15.284Z,46.58
2018-04-29T08:06:15.535Z,49.07
2018-04-29T08:07:15.786Z,49.58
2018-04-29T08:08:16.037Z,47.98
2018-04-29T08:09:16.286Z,46.09
2018-04-29T08:10:16.541Z,44.02
2018-04-29T08:11:16.798Z,42.58
2018-04-29T08:12:17.047Z,41.14
2018-04-29T08:13:17.299Z,44.01
2018-04-29T08:14:17.551Z,43.78
2018-04-29T08:15:17.804Z,42.64
2018-04-29T08:16:18.056Z,42.43
2018-04-29T08:17:18.310Z,42.15
2018-04-29T08:18:18.559Z,45.42
2018-04-29T08:19:18.812Z,46.80
2018-04-29T08:20:19.065Z,45.17
2018-04-29T08:21:19.317Z,45.90
2018-04-29T08:22:19.570Z,48.59
2018-04-29T08:23:19.824Z,50.79
2018-04-29T08:24:20.075Z,53.53
2018-04-29T08:25:20.327Z,54.17
2018-04-29T08:26:20.578Z,50.38
2018-04-29T08:27:20.828Z,50.01
2018-04-29T08:28:21.085Z,56.09
2018-04-29T08:29:21.335Z,61.10
2018-04-29T08:30:21.585Z,64.02
2018-04-29T08:31:21.838Z,65.23
2018-04-29T08:32:22.091Z,65.23
2018-04-29T08:33:22.328Z,66.26
2018-04-29T08:34:22.580Z,70.04
2018-04-29T08:35:22.835Z,70.01
2018-04-29T08:36:23.070Z,67.90
2018-04-29T08:37:23.332Z,69.40
2018-04-29T08:38:23.583Z,71.31
2018-04-29T08:39:23.833Z,72.08
2018-04-29T08:40:24.082Z,71.03
2018-04-29T08:41:24.330Z,70.80
2018-04-29T08:42:24.579Z,73.58
2018-04-29T08:43:24.831Z,72.72
2018-04-29T08:44:25.077Z,72.72
2018-04-29T08:45:25.316Z,73.68
2018-04-29T08:46:25.572Z,74.54
2018-04-29T08:47:25.813Z,72.81
2018-04-29T08:48:26.061Z,72.14
2018-04-29T08:49:26.338Z,73.68
2018-04-29T08:50:26.552Z,71.47
2018-04-29T08:51:26.799Z,71.89
2018-04-29T08:52:27.064Z,72.85
2018-04-29T08:53:27.356Z,71.70
2018-04-29T08:54:27.542Z,72.50
2018-04-29T08:55:27.792Z,71.73
2018-04-29T08:56:28.036Z,72.12
2018-04-29T08:57:28.291Z,70.87
2018-04-29T08:58:28.530Z,70.01
2018-04-29T08:59:28.778Z,67.07
2018-04-29T09:00:29.020Z,65.33
2018-04-29T09:01:29.264Z,64.02
2018-04-29T09:02:29.508Z,62.25
2018-04-29T09:03:29.769Z,61.60
2018-04-29T09:04:30.002Z,58.10
2018-04-29T09:05:30.247Z,59.83
2018-04-29T09:06:30.495Z,57.81
2018-04-29T09:07:30.743Z,55.90
2018-04-29T09:08:30.994Z,58.78
2018-04-29T09:09:31.241Z,62.03
2018-04-29T09:10:31.489Z,61.03
2018-04-29T09:11:31.737Z,57.81
2018-04-29T09:12:31.986Z,57.14
2018-04-29T09:13:32.233Z,61.77
2018-04-29T09:14:32.484Z,57.68
2018-04-29T09:15:32.731Z,54.66
2018-04-29T09:16:32.986Z,52.03
2018-04-29T09:17:33.246Z,47.40
2018-04-29T09:18:33.477Z,44.99
2018-04-29T09:19:33.727Z,47.20
2018-04-29T09:20:33.976Z,46.31
2018-04-29T09:21:34.222Z,50.79
2018-04-29T09:22:34.473Z,51.32
2018-04-29T09:23:34.723Z,50.21
2018-04-29T09:24:34.973Z,45.14
2018-04-29T09:25:35.225Z,44.78
2018-04-29T09:26:35.477Z,46.11
2018-04-29T09:27:35.728Z,46.87
2018-04-29T09:28:35.979Z,49.17
2018-04-29T09:29:36.231Z,46.69
2018-04-29T09:30:36.481Z,46.92
2018-04-29T09:31:36.734Z,47.02
2018-04-29T09:32:36.985Z,47.31
2018-04-29T09:33:37.236Z,50.16
2018-04-29T09:34:37.489Z,49.87
2018-04-29T09:35:37.743Z,49.24
2018-04-29T09:36:37.997Z,44.71
2018-04-29T09:37:38.247Z,41.38
2018-04-29T09:38:38.498Z,39.22
2018-04-29T09:39:38.752Z,37.79
2018-04-29T09:40:39.005Z,37.15
2018-04-29T09:41:39.262Z,35.53
2018-04-29T09:42:39.514Z,34.28
2018-04-29T09:43:39.802Z,33.65
2018-04-29T09:44:40.019Z,33.61
2018-04-29T09:45:40.269Z,32.17
2018-04-29T09:46:40.530Z,30.75
2018-04-29T09:47:40.783Z,30.05
2018-04-29T09:48:41.053Z,29.75
2018-04-29T09:49:41.296Z,29.39
2018-04-29T09:50:41.551Z,28.69
2018-04-29T09:51:41.820Z,29.28
2018-04-29T09:52:42.060Z,31.80
2018-04-29T09:53:42.319Z,31.10
2018-04-29T09:54:42.573Z,29.84
2018-04-29T09:55:42.837Z,28.89
2018-04-29T09:56:43.087Z,30.18
2018-04-29T09:57:43.346Z,30.08
2018-04-29T09:58:43.677Z,28.25
2018-04-29T09:59:43.858Z,29.87
2018-04-29T10:00:44.114Z,28.92
2018-04-29T10:01:44.373Z,29.05
2018-04-29T10:02:44.631Z,29.08
2018-04-29T10:03:44.889Z,30.80
2018-04-29T10:04:45.145Z,33.58
2018-04-29T10:05:45.403Z,33.06
2018-04-29T10:06:45.658Z,34.27
2018-04-29T10:07:45.915Z,35.31
2018-04-29T10:08:46.176Z,37.96
2018-04-29T10:09:46.431Z,40.11
2018-04-29T10:10:46.689Z,38.77
2018-04-29T10:11:46.946Z,38.96
2018-04-29T10:12:47.203Z,40.69
2018-04-29T10:13:47.463Z,40.11
2018-04-29T10:14:47.718Z,35.72
2018-04-29T10:15:47.973Z,33.22
2018-04-29T10:16:48.230Z,32.19
2018-04-29T10:17:48.489Z,30.75
2018-04-29T10:18:48.766Z,32.71
2018-04-29T10:19:49.001Z,35.85
2018-04-29T10:20:49.255Z,38.44
2018-04-29T10:21:49.512Z,38.18
2018-04-29T10:22:49.769Z,38.26
2018-04-29T10:23:50.028Z,37.77
2018-04-29T10:24:50.281Z,39.20
2018-04-29T10:25:50.539Z,39.86
2018-04-29T10:26:50.795Z,39.12
2018-04-29T10:27:51.052Z,37.13
2018-04-29T10:28:51.307Z,35.90
2018-04-29T10:29:51.564Z,35.31
2018-04-29T10:30:51.819Z,33.70
2018-04-29T10:31:52.079Z,35.30
2018-04-29T10:32:52.394Z,36.98
2018-04-29T10:33:52.588Z,38.42
2018-04-29T10:34:52.844Z,40.11
2018-04-29T10:35:53.101Z,42.40
2018-04-29T10:36:53.356Z,43.45
2018-04-29T10:37:53.613Z,43.49
2018-04-29T10:38:53.864Z,43.20
2018-04-29T10:39:54.116Z,42.25
2018-04-29T10:40:54.370Z,42.18
2018-04-29T10:41:54.626Z,40.85
2018-04-29T10:42:54.881Z,37.35
2018-04-29T10:43:55.142Z,35.49
2018-04-29T10:44:55.392Z,35.80
2018-04-29T10:45:55.647Z,34.75
2018-04-29T10:46:55.904Z,33.43
2018-04-29T10:47:56.159Z,32.30
2018-04-29T10:48:56.415Z,30.08
2018-04-29T10:49:56.668Z,30.88
2018-04-29T10:50:56.924Z,30.90
2018-04-29T10:51:57.180Z,30.68
2018-04-29T10:52:57.436Z,28.49
2018-04-29T10:53:57.693Z,27.89
2018-04-29T10:54:57.949Z,28.15
2018-04-29T10:55:58.214Z,29.69
2018-04-29T10:56:58.466Z,29.07
2018-04-29T10:57:58.723Z,30.16
2018-04-29T10:58:58.984Z,29.58
2018-04-29T10:59:59.239Z,31.71
2018-04-29T11:00:59.495Z,31.06
2018-04-29T11:01:59.752Z,29.44
2018-04-29T11:03:00.011Z,29.73
2018-04-29T11:04:00.270Z,29.07
2018-04-29T11:05:00.527Z,28.95
2018-04-29T11:06:00.784Z,29.93
2018-04-29T11:07:01.043Z,29.72
2018-04-29T11:08:01.300Z,30.00
2018-04-29T11:09:01.560Z,29.43
2018-04-29T11:10:01.818Z,28.36
2018-04-29T11:11:02.077Z,27.01
2018-04-29T11:12:02.340Z,29.33
2018-04-29T11:13:02.592Z,31.24
2018-04-29T11:14:02.854Z,29.69
2018-04-29T11:15:03.113Z,30.67
2018-04-29T11:16:03.372Z,29.88
2018-04-29T11:17:03.631Z,30.68
2018-04-29T11:18:03.892Z,28.86
2018-04-29T11:19:04.148Z,29.37
2018-04-29T11:20:04.411Z,26.93
2018-04-29T11:21:04.666Z,27.25
2018-04-29T11:22:04.989Z,28.02
2018-04-29T11:23:05.188Z,25.88
2018-04-29T11:24:05.452Z,25.17
2018-04-29T11:25:05.707Z,26.85
2018-04-29T11:26:05.967Z,25.87
2018-04-29T11:27:06.238Z,26.26
2018-04-29T11:28:06.483Z,28.75
2018-04-29T11:29:06.744Z,29.31
2018-04-29T11:30:07.004Z,29.20
2018-04-29T11:31:07.265Z,30.83
2018-04-29T11:32:07.528Z,32.56
2018-04-29T11:33:07.789Z,32.58
2018-04-29T11:34:08.042Z,35.69
2018-04-29T11:35:08.322Z,39.04
2018-04-29T11:36:08.584Z,40.73
2018-04-29T11:37:08.839Z,36.70
2018-04-29T11:38:09.101Z,41.28
2018-04-29T11:39:09.361Z,43.23
2018-04-29T11:40:09.620Z,39.22
2018-04-29T11:41:09.879Z,39.59
2018-04-29T11:42:10.138Z,36.96
2018-04-29T11:43:10.396Z,35.75
2018-04-29T11:44:10.655Z,35.25
2018-04-29T11:45:10.912Z,36.76
2018-04-29T11:46:11.173Z,36.21
2018-04-29T11:47:11.428Z,36.23
2018-04-29T11:48:11.687Z,35.27
2018-04-29T11:49:11.945Z,33.82
2018-04-29T11:50:12.205Z,34.88
2018-04-29T11:51:12.467Z,33.92
2018-04-29T11:52:12.721Z,32.48
2018-04-29T11:53:12.979Z,34.13
2018-04-29T11:54:13.238Z,34.16
2018-04-29T11:55:13.496Z,35.82
2018-04-29T11:56:13.753Z,35.74
2018-04-29T11:57:14.012Z,34.88
2018-04-29T11:58:14.270Z,31.91
2018-04-29T11:59:14.527Z,32.42
2018-04-29T12:00:14.787Z,31.41
2018-04-29T12:01:15.045Z,33.46
2018-04-29T12:02:15.303Z,32.60
2018-04-29T12:03:15.559Z,33.70
2018-04-29T12:04:15.815Z,33.70
2018-04-29T12:05:16.073Z,36.15
2018-04-29T12:06:16.332Z,36.15
2018-04-29T12:07:16.592Z,35.60
2018-04-29T12:08:16.849Z,34.33
2018-04-29T12:09:17.110Z,34.13
2018-04-29T12:10:17.365Z,36.13
2018-04-29T12:11:17.628Z,36.58
2018-04-29T12:12:17.885Z,37.38
2018-04-29T12:13:18.144Z,38.09
2018-04-29T12:14:18.404Z,38.90
2018-04-29T12:15:18.660Z,38.38
2018-04-29T12:16:19.054Z,41.38
2018-04-29T12:17:19.178Z,40.16
2018-04-29T12:18:19.434Z,39.45
2018-04-29T12:19:19.701Z,39.34
2018-04-29T12:20:19.953Z,40.93
2018-04-29T12:21:20.209Z,42.74
2018-04-29T12:22:20.468Z,41.22
2018-04-29T12:23:20.729Z,40.62
2018-04-29T12:24:20.986Z,41.65
2018-04-29T12:25:21.241Z,42.94
2018-04-29T12:26:21.505Z,42.00
2018-04-29T12:27:21.754Z,40.88
2018-04-29T12:28:22.017Z,41.01
2018-04-29T12:29:22.264Z,40.55
2018-04-29T12:30:22.517Z,41.27
2018-04-29T12:31:22.777Z,40.76
2018-04-29T12:32:23.035Z,39.22
2018-04-29T12:33:23.290Z,38.92
2018-04-29T12:34:23.546Z,37.85
2018-04-29T12:35:23.803Z,39.28
2018-04-29T12:36:24.063Z,39.39
2018-04-29T12:37:24.320Z,40.66
2018-04-29T12:38:24.576Z,39.23
2018-04-29T12:39:24.831Z,38.32
2018-04-29T12:40:25.088Z,39.02
2018-04-29T12:41:25.344Z,38.20
2018-04-29T12:42:25.598Z,35.58
2018-04-29T12:43:25.859Z,37.26
2018-04-29T12:44:26.124Z,37.24
2018-04-29T12:45:26.374Z,36.24
2018-04-29T12:46:26.626Z,37.04
2018-04-29T12:47:26.882Z,40.01
2018-04-29T12:48:27.137Z,38.01
2018-04-29T12:49:27.397Z,38.43
2018-04-29T12:50:27.654Z,37.96
2018-04-29T12:51:27.907Z,36.52
2018-04-29T12:52:28.164Z,35.19
2018-04-29T12:53:28.419Z,35.30
2018-04-29T12:54:28.681Z,37.16
2018-04-29T12:55:28.936Z,38.40
2018-04-29T12:56:29.192Z,38.73
2018-04-29T12:57:29.448Z,37.12